Tiempo atmosférico en la estación meteorológica de Valderrobres, Teruel (482 m.)



Fecha
DESCASC
Temp. máxima en grados centígrados (hora)
DESCASC
Temp. mínima en grados centígrados (hora)
DESCASC
Temp. media en grados centígrados
DESCASC
Racha de viento máxima en m/sg (hora)
DESCASC
Velocidad máxima media en intervalos de 10 minutos(hora)
DESCASC
Precipitaciones diarias en mm
DESCASC
Precipitaciones de 00:00 a 06:00 en mm
DESCASC
Precipitaciones de 06:00 a 12:00 en mm
DESCASC
Precipitaciones de 12:00 a 18:00 en mm
DESCASC
Precipitaciones de 18:00 a 24:00 en mm
DESCASC
14-12-2019 14.4 (14:50) 3.3 (23:40) 8.8 10.28 (01:10) 4.72 (00:10) 0 0 0 0 0
13-12-2019 17.5 (14:00) 12.4 (00:40) 14.9 18.89 (13:30) 10 (14:10) 0 0 0 0 0
12-12-2019 13.5 (23:40) 6.1 (08:20) 9.8 12.78 (23:10) 6.67 (12:40) 2.4 0 0 1.4 1
11-12-2019 12.7 (12:20) -0.3 (00:00) 6.2 12.78 (13:20) 7.78 (13:20) 0 0 0 0 0
10-12-2019 13.6 (15:30) 0.9 (23:59) 7.3 12.78 (01:00) 6.11 (01:00) 0 0 0 0 0
09-12-2019 12.3 (14:10) 3.3 (08:20) 7.8 18.33 (12:50) 10.56 (15:20) 0 0 0 0 0
08-12-2019 14.8 (14:40) -0.2 (00:00) 7.3 10 (22:10) 5.28 (22:10) 0 0 0 0 0
07-12-2019 12.6 (15:20) 0.2 (00:00) 6.4 4.17 (14:10) 1.94 (13:50) 0 0 0 0 0
06-12-2019 11.6 (14:40) 3.3 (00:00) 7.5 3.33 (16:00) 1.94 (14:40) 1.4 1.4 0 0 0
05-12-2019 8.4 (14:10) 6.9 (00:00) 7.6 3.61 (16:20) 2.22 (16:20) 19.4 3 4 7.8 4.6
04-12-2019 7.1 (23:50) 4 (03:00) 5.5 3.33 (11:50) 1.39 (12:20) 50.2 3.8 25.8 17.6 3
03-12-2019 6.8 (15:30) 4.5 (00:00) 5.7 5 (10:40) 2.5 (11:50) 1 0 0 0 1
02-12-2019 9.7 (14:50) 1.5 (00:00) 5.6 5.28 (23:40) 2.5 (21:50) 0 0 0 0 0
01-12-2019 11.5 (14:40) 1.3 (00:00) 6.4 8.33 (00:20) 4.44 (00:30) 0 0 0 0 0
30-11-2019 17.8 (13:30) 3.8 (00:00) 10.8 7.5 (23:00) 4.17 (23:50) 0 0 0 0 0
29-11-2019 15.3 (15:40) 5.9 (00:00) 10.6 7.78 (11:20) 3.89 (11:50) 0 0 0 0 0
28-11-2019 17.5 (14:00) 5.3 (05:10) 11.4 11.39 (13:10) 5.28 (13:10) 0 0 0 0 0
27-11-2019 16.2 (15:00) 7.6 (00:00) 11.9 9.44 (13:10) 5 (12:50) 0 0 0 0 0
26-11-2019 19.2 (15:20) 2.8 (00:00) 11 4.72 (13:40) 2.22 (13:50) 0 0 0 0 0
25-11-2019 16.7 (14:30) 1 (00:10) 8.9 9.17 (14:20) 6.11 (14:20) 0 0 0 0 0
24-11-2019 11.9 (13:50) 1.1 (00:00) 6.5 12.78 (13:00) 6.39 (12:40) 0 0 0 0 0
23-11-2019 11.1 (16:00) 3.8 (00:00) 7.5 16.39 (09:50) 6.67 (16:30) 1.6 0 1.6 0 0
22-11-2019 13.5 (21:40) 0.4 (00:00) 7 14.72 (19:30) 5.56 (23:50) 0.8 0 0 0.4 0.4
21-11-2019 13.1 (14:20) -0.7 (-00:0) 6.2 5 (13:10) 2.78 (12:50) 0 0 0 0 0
20-11-2019 12.7 (14:20) -1.8 (06:00) 5.4 5.56 (14:50) 2.5 (14:50) 0 0 0 0 0
19-11-2019 9.7 (14:40) -1 (-00:0) 4.3 8.33 (11:40) 4.17 (13:30) 0 0 0 0 0
18-11-2019 8 (14:50) 3 (00:00) 5.5 10.56 (11:00) 5.83 (11:20) 0.6 0.6 0 0 0
17-11-2019 12.6 (14:00) 4.8 (00:00) 8.7 12.5 (12:00) 5.83 (11:40) 3.2 0 0 2.4 0.8
16-11-2019 9.1 (15:50) 0.1 (00:00) 4.6 10 (22:20) 5 (13:50) 0 0 0 0 0

Gráficas

Temp. máximas Temp. mínimas Temp. medias Precipitaciones Rachas de viento máximas Velocidades máximas media en intervalos de 10 minutos

Datos horarios

Fecha y hora oficial Temperatura (ºC) Velocidad del viento (km/h) Dirección del viento Racha (km/h) Dirección de racha Precipitación (mm) Presión (hPa) Tendencia (hPa) Humedad (%)
2019-12-15 23:00:00 3.8 0 Calma -- -- 0 -- -- 96
2019-12-15 22:00:00 4.3 0 Calma -- -- 0 -- -- 95
2019-12-15 21:00:00 4.9 0 Calma -- -- 0 -- -- 94
2019-12-15 20:00:00 5.5 0 Calma -- -- 0 -- -- 91
2019-12-15 19:00:00 6.8 0 Calma -- -- 0 -- -- 86
2019-12-15 18:00:00 8.7 0 Calma 6 Sur 0 -- -- 80
2019-12-15 17:00:00 11.3 0 Calma 10 Sudoeste 0 -- -- 73
2019-12-15 16:00:00 13.9 4 Sur 12 Nordeste 0 -- -- 63
2019-12-15 15:00:00 13.7 0 Calma 11 Nordeste 0 -- -- 58
2019-12-15 14:00:00 14 3 Sur 9 Sudoeste 0 -- -- 58
2019-12-15 13:00:00 12.5 2 Sudoeste 10 Oeste 0 -- -- 61
2019-12-15 12:00:00 10.7 0 Calma -- -- 0 -- -- 70
2019-12-15 11:00:00 6.1 0 Calma -- -- 0 -- -- 100
2019-12-15 10:00:00 2.3 0 Calma -- -- 0 -- -- 100
2019-12-15 09:00:00 0.1 0 Calma -- -- 0 -- -- 100
2019-12-15 08:00:00 0.1 0 Calma -- -- 0 -- -- 99
2019-12-15 07:00:00 0.4 0 Calma 4 Sudoeste 0 -- -- 99
2019-12-15 06:00:00 0.5 2 Oeste 6 Sur 0 -- -- 99
2019-12-15 05:00:00 0.7 0 Calma -- -- 0 -- -- 98
2019-12-15 04:00:00 1.1 0 Calma -- -- 0 -- -- 98
2019-12-15 03:00:00 1.7 0 Calma 5 Sudoeste 0 -- -- 97
2019-12-15 02:00:00 2.3 0 Calma 6 Oeste 0 -- -- 97
2019-12-15 01:00:00 2.7 0 Calma 6 Oeste 0 -- -- 97
2019-12-15 00:00:00 3.3 0 Calma 5 Oeste 0 -- -- 96
2019-12-14 23:00:00 3.6 0 Calma 8 Este 0 -- -- 95
2019-12-14 22:00:00 4.1 2 Sur 8 Oeste 0 -- -- 92
2019-12-14 21:00:00 5.3 0 Calma -- -- 0 -- -- 88
2019-12-14 20:00:00 7.2 0 Calma 2 Sur 0 -- -- 82
2019-12-14 19:00:00 9.2 2 Sudeste 9 Sudoeste 0 -- -- 74
2019-12-14 18:00:00 11.4 8 Sudoeste 14 Oeste 0 -- -- 68
2019-12-14 17:00:00 13.4 3 Oeste 19 Oeste 0 -- -- 61
2019-12-14 16:00:00 14.3 10 Noroeste 23 Oeste 0 -- -- 55
2019-12-14 15:00:00 14.3 8 Oeste 24 Oeste 0 -- -- 54
2019-12-14 14:00:00 14.1 14 Oeste 26 Oeste 0 -- -- 54
2019-12-14 13:00:00 14 9 Oeste 29 Oeste 0 -- -- 57
2019-12-14 12:00:00 13.5 13 Oeste 33 Oeste 0 -- -- 57
2019-12-14 11:00:00 12.3 12 Oeste 29 Oeste 0 -- -- 62
2019-12-14 10:00:00 11.9 12 Oeste 26 Sudoeste 0 -- -- 63
2019-12-14 09:00:00 10.4 12 Oeste 21 Oeste 0 -- -- 69
2019-12-14 08:00:00 10.5 12 Oeste 28 Oeste 0 -- -- 69
2019-12-14 07:00:00 10.9 10 Oeste 31 Oeste 0 -- -- 67
2019-12-14 06:00:00 11.4 13 Oeste 29 Oeste 0 -- -- 65
2019-12-14 05:00:00 12 11 Oeste 28 Noroeste 0 -- -- 63
2019-12-14 04:00:00 12.6 17 Oeste 35 Oeste 0 -- -- 61
2019-12-14 03:00:00 12.8 10 Oeste 32 Oeste 0 -- -- 60
2019-12-14 02:00:00 13.4 13 Oeste 37 Oeste 0 -- -- 58
2019-12-14 01:00:00 13.7 15 Oeste 35 Oeste 0 -- -- 58
2019-12-14 00:00:00 13.9 15 Oeste 30 Oeste 0 -- -- 61
2019-12-13 23:00:00 14.7 13 Noroeste 36 Oeste 0 -- -- 60
2019-12-13 22:00:00 15 12 Oeste 45 Oeste 0 -- -- 61
2019-12-13 21:00:00 15.4 21 Oeste 43 Oeste 0 -- -- 61
2019-12-13 20:00:00 15.9 19 Oeste 54 Oeste 0 -- -- 61
2019-12-13 19:00:00 16 23 Oeste 42 Oeste 0 -- -- 60
2019-12-13 18:00:00 15.8 15 Oeste 45 Oeste 0 -- -- 61
2019-12-13 17:00:00 16.2 20 Noroeste 50 Oeste 0 -- -- 59
2019-12-13 16:00:00 17 31 Oeste 56 Oeste 0 -- -- 56
2019-12-13 15:00:00 17.2 29 Oeste 59 Oeste 0 -- -- 54
2019-12-13 14:00:00 17.5 30 Oeste 68 Oeste 0 -- -- 53
2019-12-13 13:00:00 17.4 30 Oeste 60 Oeste 0 -- -- 54
2019-12-13 12:00:00 16.6 23 Oeste 56 Oeste 0 -- -- 56
2019-12-13 11:00:00 15.8 21 Oeste 50 Oeste 0 -- -- 58
2019-12-13 10:00:00 15.6 21 Oeste 48 Oeste 0 -- -- 60
2019-12-13 09:00:00 15.8 20 Oeste 45 Oeste 0 -- -- 60
2019-12-13 08:00:00 15.7 22 Oeste 56 Oeste 0 -- -- 61
2019-12-13 07:00:00 15.6 24 Oeste 50 Oeste 0 -- -- 62
2019-12-13 06:00:00 15.1 20 Oeste 52 Oeste 0 -- -- 65
2019-12-13 05:00:00 15 17 Oeste 43 Oeste 0 -- -- 65
2019-12-13 04:00:00 14.7 18 Oeste 42 Noroeste 0 -- -- 64
2019-12-13 03:00:00 14 15 Oeste 43 Oeste 0 -- -- 67
2019-12-13 02:00:00 13.3 18 Oeste 42 Oeste 0 -- -- 70
2019-12-13 01:00:00 12.6 16 Oeste 39 Oeste 0 -- -- 73
2019-12-13 00:00:00 13.3 17 Oeste 46 Sudoeste 0 -- -- 67
2019-12-12 23:00:00 12.7 17 Oeste 41 Oeste 0 -- -- 66
2019-12-12 22:00:00 11.7 17 Oeste 45 Oeste 0 -- -- 69
2019-12-12 21:00:00 7.7 3 Sur 14 Sudoeste 0 -- -- 93
2019-12-12 20:00:00 7.5 9 Sur 20 Sudoeste 0.4 -- -- 92
2019-12-12 19:00:00 7.6 5 Sudeste 16 Sur 0.6 -- -- 91
2019-12-12 18:00:00 7.9 5 Sur 30 Oeste 1 -- -- 88
2019-12-12 17:00:00 9.2 13 Oeste 28 Oeste 0.4 -- -- 76
2019-12-12 16:00:00 10.1 9 Oeste 27 Noroeste 0 -- -- 67
2019-12-12 15:00:00 10.7 7 Oeste 27 Oeste 0 -- -- 65
2019-12-12 14:00:00 11.5 11 Oeste 36 Oeste 0 -- -- 54
2019-12-12 13:00:00 12 19 Oeste 42 Noroeste 0 -- -- 53
2019-12-12 12:00:00 11 12 Oeste 35 Oeste 0 -- -- 57
2019-12-12 11:00:00 9.5 20 Oeste 39 Oeste 0 -- -- 58
2019-12-12 10:00:00 7.9 8 Oeste 25 Oeste 0 -- -- 65
2019-12-12 09:00:00 7 8 Oeste 28 Oeste 0 -- -- 66
2019-12-12 08:00:00 6.5 7 Oeste 27 Oeste 0 -- -- 68
2019-12-12 07:00:00 7.1 12 Oeste 27 Oeste 0 -- -- 66
2019-12-12 06:00:00 7.1 13 Oeste 35 Oeste 0 -- -- 67
2019-12-12 05:00:00 6.8 8 Oeste 30 Oeste 0 -- -- 67
2019-12-12 04:00:00 7.5 15 Oeste 34 Oeste 0 -- -- 64
2019-12-12 03:00:00 7.1 12 Oeste 25 Oeste 0 -- -- 65
2019-12-12 02:00:00 7 12 Oeste 26 Oeste 0 -- -- 64
2019-12-12 01:00:00 7.6 14 Oeste 36 Oeste 0 -- -- 62
2019-12-12 00:00:00 8 14 Oeste 35 Oeste 0 -- -- 59
2019-12-11 23:00:00 7.5 10 Oeste 31 Oeste 0 -- -- 63
2019-12-11 22:00:00 7.3 13 Oeste 27 Oeste 0 -- -- 68
2019-12-11 21:00:00 7 13 Oeste 26 Oeste 0 -- -- 80
2019-12-11 20:00:00 7 13 Noroeste 30 Oeste 0 -- -- 76
2019-12-11 19:00:00 7.3 9 Oeste 27 Noroeste 0 -- -- 76
2019-12-11 18:00:00 7.7 11 Oeste 41 Oeste 0 -- -- 74
2019-12-11 17:00:00 8.4 22 Oeste 45 Oeste 0 -- -- 75
2019-12-11 16:00:00 8.8 24 Oeste 45 Oeste 0 -- -- 76
2019-12-11 15:00:00 8.8 16 Oeste 30 Oeste 0 -- -- 70
2019-12-11 14:00:00 9.1 19 Oeste 46 Noroeste 0 -- -- 76
2019-12-11 13:00:00 11.5 21 Oeste 44 Noroeste 0 -- -- 49
2019-12-11 12:00:00 11.9 12 Oeste 23 Noroeste 0 -- -- 48
2019-12-11 11:00:00 6.1 4 Sudoeste 5 Oeste 0 -- -- 82
2019-12-11 10:00:00 2 0 Calma -- -- 0 -- -- 100
2019-12-11 09:00:00 -0.1 0 Calma -- -- 0 -- -- 99
2019-12-11 08:00:00 -0.2 0 Calma -- -- 0 -- -- 98
2019-12-11 07:00:00 0.3 0 Calma -- -- 0 -- -- 98
2019-12-11 06:00:00 0.6 0 Calma -- -- 0 -- -- 99
2019-12-11 05:00:00 0.5 0 Calma -- -- 0 -- -- 99
2019-12-11 04:00:00 0.3 0 Calma 2 Oeste 0 -- -- 98
2019-12-11 03:00:00 0.4 0 Calma 5 Sudoeste 0 -- -- 98
2019-12-11 02:00:00 0.3 0 Calma -- -- 0 -- -- 98
2019-12-11 01:00:00 0.3 0 Calma -- -- 0 -- -- 96
2019-12-11 00:00:00 0.9 0 Calma -- -- 0 -- -- 95
2019-12-10 23:00:00 1.5 0 Calma -- -- 0 -- -- 95
2019-12-10 22:00:00 1.8 0 Calma -- -- 0 -- -- 94
2019-12-10 21:00:00 2.3 0 Calma 5 Oeste 0 -- -- 92
2019-12-10 20:00:00 3.3 0 Calma 5 Sur 0 -- -- 87
2019-12-10 19:00:00 5.2 3 Oeste 8 Oeste 0 -- -- 81
2019-12-10 18:00:00 7.5 2 Sudeste 8 Sur 0 -- -- 73
2019-12-10 17:00:00 10.5 3 Sur 11 Sudoeste 0 -- -- 62
2019-12-10 16:00:00 13.3 8 Sudoeste 10 Sudoeste 0 -- -- 52
2019-12-10 15:00:00 13.2 2 Sudeste 6 Este 0 -- -- 46
2019-12-10 14:00:00 12.5 2 Sudeste 8 Sudeste 0 -- -- 43
2019-12-10 13:00:00 11.7 5 Sudeste 10 Sudeste 0 -- -- 50
2019-12-10 12:00:00 10.7 5 Sur 17 Oeste 0 -- -- 58
2019-12-10 11:00:00 8.9 3 Noroeste 12 Oeste 0 -- -- 62
2019-12-10 10:00:00 7.8 3 Sudoeste 9 Sudoeste 0 -- -- 69
2019-12-10 09:00:00 5.9 3 Sudoeste 17 Sur 0 -- -- 75
2019-12-10 08:00:00 7.1 6 Sudoeste 39 Noroeste 0 -- -- 70
2019-12-10 07:00:00 7.6 16 Oeste 35 Oeste 0 -- -- 70
2019-12-10 06:00:00 7.7 15 Oeste 33 Oeste 0 -- -- 68
2019-12-10 05:00:00 7.9 11 Oeste 34 Oeste 0 -- -- 67
2019-12-10 04:00:00 8.2 17 Oeste 43 Oeste 0 -- -- 65
2019-12-10 03:00:00 8.2 15 Oeste 39 Oeste 0 -- -- 68
2019-12-10 02:00:00 8.4 19 Oeste 45 Oeste 0 -- -- 66
2019-12-10 01:00:00 8.8 22 Oeste 46 Oeste 0 -- -- 64
2019-12-10 00:00:00 8.7 18 Oeste 44 Oeste 0 -- -- 67
2019-12-09 23:00:00 8.7 14 Oeste 50 Oeste 0 -- -- 69
2019-12-09 22:00:00 8.9 19 Oeste 41 Oeste 0 -- -- 70
2019-12-09 21:00:00 9.1 23 Oeste 47 Oeste 0 -- -- 70
2019-12-09 20:00:00 9 19 Oeste 36 Oeste 0 -- -- 74
2019-12-09 19:00:00 9 16 Oeste 39 Oeste 0 -- -- 75
2019-12-09 18:00:00 9.6 19 Noroeste 54 Oeste 0 -- -- 73
2019-12-09 17:00:00 10.4 23 Noroeste 63 Noroeste 0 -- -- 66
2019-12-09 16:00:00 11.3 32 Noroeste 65 Oeste 0 -- -- 61
2019-12-09 15:00:00 11.5 35 Noroeste 62 Noroeste 0 -- -- 62
2019-12-09 14:00:00 12.1 28 Noroeste 58 Noroeste 0 -- -- 57
2019-12-09 13:00:00 11.9 28 Noroeste 66 Noroeste 0 -- -- 57
2019-12-09 12:00:00 11.3 31 Noroeste 59 Noroeste 0 -- -- 59
2019-12-09 11:00:00 10.4 24 Oeste 44 Oeste 0 -- -- 61
2019-12-09 10:00:00 7.9 14 Oeste 32 Oeste 0 -- -- 75
2019-12-09 09:00:00 4.8 3 Sur 12 Oeste 0 -- -- 90
2019-12-09 08:00:00 4 3 Sur 9 Oeste 0 -- -- 89
2019-12-09 07:00:00 5.5 3 Sudoeste 9 Sudoeste 0 -- -- 89
2019-12-09 06:00:00 7.3 4 Oeste 15 Oeste 0 -- -- 87
2019-12-09 05:00:00 9.3 12 Oeste 24 Oeste 0 -- -- 82
2019-12-09 04:00:00 9.6 10 Oeste 19 Oeste 0 -- -- 84
2019-12-09 03:00:00 10.1 8 Oeste 30 Oeste 0 -- -- 82
2019-12-09 02:00:00 10.1 10 Oeste 26 Noroeste 0 -- -- 83
2019-12-09 01:00:00 10.4 9 Oeste 24 Oeste 0 -- -- 82
2019-12-09 00:00:00 10.9 7 Oeste 30 Oeste 0 -- -- 83
2019-12-08 23:00:00 12.2 14 Oeste 36 Oeste 0 -- -- 84
2019-12-08 22:00:00 12.2 16 Oeste 27 Oeste 0 -- -- 87
2019-12-08 21:00:00 9.2 3 Sudoeste 6 Oeste 0 -- -- 91
2019-12-08 20:00:00 10.1 4 Oeste 23 Oeste 0 -- -- 84
2019-12-08 19:00:00 10.8 6 Noroeste 10 Noroeste 0 -- -- 83
2019-12-08 18:00:00 11.3 0 Calma 9 Sudoeste 0 -- -- 83
2019-12-08 17:00:00 12.5 4 Sur 18 Noroeste 0 -- -- 75
2019-12-08 16:00:00 13.9 8 Oeste 27 Oeste 0 -- -- 65
2019-12-08 15:00:00 14.7 11 Noroeste 25 Noroeste 0 -- -- 60
2019-12-08 14:00:00 14.3 15 Oeste 31 Noroeste 0 -- -- 58
2019-12-08 13:00:00 13.2 9 Oeste 19 Oeste 0 -- -- 59
2019-12-08 12:00:00 9.6 2 Oeste 6 Oeste 0 -- -- 94
2019-12-08 11:00:00 5.7 0 Calma 5 Sur 0 -- -- 100
2019-12-08 10:00:00 2.6 0 Calma -- -- 0 -- -- 100
2019-12-08 09:00:00 0.1 0 Calma 6 Oeste 0 -- -- 100
2019-12-08 08:00:00 -0.1 0 Calma -- -- 0 -- -- 100
2019-12-08 07:00:00 -0.2 0 Calma -- -- 0 -- -- 100
2019-12-08 06:00:00 0 0 Calma -- -- 0 -- -- 100
2019-12-08 05:00:00 0.2 0 Calma -- -- 0 -- -- 100
2019-12-08 04:00:00 0.6 0 Calma -- -- 0 -- -- 100
2019-12-08 03:00:00 0.8 0 Calma -- -- 0 -- -- 100
2019-12-08 02:00:00 1.2 0 Calma -- -- 0 -- -- 100
2019-12-08 01:00:00 1.6 0 Calma -- -- 0 -- -- 100
2019-12-08 00:00:00 2.1 0 Calma -- -- 0 -- -- 99
2019-12-07 23:00:00 2.5 0 Calma -- -- 0 -- -- 98
2019-12-07 22:00:00 3.1 0 Calma -- -- 0 -- -- 98
2019-12-07 21:00:00 3.9 0 Calma 3 Oeste 0 -- -- 97
2019-12-07 20:00:00 5 0 Calma 4 Oeste 0 -- -- 95
2019-12-07 19:00:00 6.4 4 Sudeste 6 Este 0 -- -- 93
2019-12-07 18:00:00 8.3 2 Sudeste 9 Sudoeste 0 -- -- 89
2019-12-07 17:00:00 10.5 4 Sudoeste 10 Sudoeste 0 -- -- 83
2019-12-07 16:00:00 12.4 4 Oeste 8 Oeste 0 -- -- 71
2019-12-07 15:00:00 12.5 5 Oeste 15 Oeste 0 -- -- 70
2019-12-07 14:00:00 12.3 6 Oeste 12 Noroeste 0 -- -- 71
2019-12-07 13:00:00 11.3 3 Sudoeste 10 Oeste 0 -- -- 86
2019-12-07 12:00:00 8.8 0 Calma -- -- 0 -- -- 100
2019-12-07 11:00:00 5.8 0 Calma -- -- 0 -- -- 100
2019-12-07 10:00:00 2.8 0 Calma -- -- 0 -- -- 100
2019-12-07 09:00:00 0.3 0 Calma -- -- 0 -- -- 100
2019-12-07 08:00:00 0.3 0 Calma -- -- 0 -- -- 100
2019-12-07 07:00:00 0.4 0 Calma -- -- 0 -- -- 100
2019-12-07 06:00:00 0.8 0 Calma -- -- 0 -- -- 100
2019-12-07 05:00:00 1.2 0 Calma -- -- 0 -- -- 100
2019-12-07 04:00:00 1.5 0 Calma -- -- 0 -- -- 100
2019-12-07 03:00:00 1.9 0 Calma -- -- 0 -- -- 100
2019-12-07 02:00:00 2.5 0 Calma -- -- 0 -- -- 100
2019-12-07 01:00:00 2.9 0 Calma -- -- 0 -- -- 100
2019-12-07 00:00:00 3.3 0 Calma 0 Calma 0 -- -- 100
2019-12-06 23:00:00 3.9 0 Calma -- -- 0 -- -- 99
2019-12-06 22:00:00 4.7 0 Calma -- -- 0 -- -- 99
2019-12-06 21:00:00 5.2 0 Calma -- -- 0 -- -- 98
2019-12-06 20:00:00 5.8 0 Calma -- -- 0 -- -- 97
2019-12-06 19:00:00 7.2 0 Calma 6 Sudoeste 0 -- -- 95
2019-12-06 18:00:00 8.8 3 Sudoeste 9 Sudoeste 0 -- -- 93
2019-12-06 17:00:00 11.1 0 Calma 12 Este 0 -- -- 93
2019-12-06 16:00:00 11.6 7 Este 12 Este 0 -- -- 88
2019-12-06 15:00:00 11.3 4 Este 11 Oeste 0 -- -- 88
2019-12-06 14:00:00 11.2 5 Noroeste 8 Noroeste 0 -- -- 87
2019-12-06 13:00:00 10.1 2 Nordeste 5 Este 0 -- -- 94
2019-12-06 12:00:00 9.5 0 Calma -- -- 0 -- -- 100
2019-12-06 11:00:00 8.4 0 Calma 5 Oeste 0 -- -- 100
2019-12-06 10:00:00 8 4 Oeste 6 Oeste 0 -- -- 100
2019-12-06 09:00:00 7.7 0 Calma 3 Oeste 0 -- -- 100
2019-12-06 08:00:00 7.7 0 Calma 4 Oeste 0 -- -- 100
2019-12-06 07:00:00 7.7 0 Calma 3 Oeste 0 -- -- 100
2019-12-06 06:00:00 7.7 3 Oeste 5 Noroeste 0 -- -- 100
2019-12-06 05:00:00 7.8 0 Calma -- -- 0.2 -- -- 100
2019-12-06 04:00:00 7.8 0 Calma -- -- 0 -- -- 100
2019-12-06 03:00:00 7.8 0 Calma -- -- 0.2 -- -- 100
2019-12-06 02:00:00 7.8 0 Calma -- -- 0.2 -- -- 100
2019-12-06 01:00:00 7.8 0 Calma -- -- 0.8 -- -- 100
2019-12-06 00:00:00 7.8 0 Calma -- -- 0.6 -- -- 100
2019-12-05 23:00:00 7.8 0 Calma -- -- 0.4 -- -- 100
2019-12-05 22:00:00 7.8 0 Calma 4 Este 0.6 -- -- 100
2019-12-05 21:00:00 7.7 0 Calma 3 Sudeste 0.6 -- -- 100
2019-12-05 20:00:00 7.7 0 Calma 4 Sudeste 1 -- -- 100
2019-12-05 19:00:00 7.7 0 Calma 5 Sudoeste 1.4 -- -- 100
2019-12-05 18:00:00 7.8 0 Calma 2 Sur 2 -- -- 99
2019-12-05 17:00:00 7.8 0 Calma 13 Oeste 2.2 -- -- 99
2019-12-05 16:00:00 8.2 4 Oeste 10 Oeste 1.2 -- -- 100
2019-12-05 15:00:00 8.4 5 Noroeste 10 Noroeste 1 -- -- 100
2019-12-05 14:00:00 8.3 3 Oeste 10 Oeste 0.8 -- -- 100
2019-12-05 13:00:00 8.3 4 Oeste 10 Oeste 0.6 -- -- 100
2019-12-05 12:00:00 8.3 4 Noroeste 10 Noroeste 0.4 -- -- 100
2019-12-05 11:00:00 8 4 Noroeste 6 Oeste 0.6 -- -- 100
2019-12-05 10:00:00 7.4 0 Calma 3 Sudeste 1.2 -- -- 100
2019-12-05 09:00:00 7.1 0 Calma 0 Calma 0.8 -- -- 100
2019-12-05 08:00:00 7 0 Calma 3 Oeste 0.6 -- -- 100
2019-12-05 07:00:00 7 0 Calma 9 Oeste 0.4 -- -- 100
2019-12-05 06:00:00 7.1 4 Noroeste 8 Oeste 1 -- -- 100
2019-12-05 05:00:00 7.2 2 Oeste 8 Oeste 0 -- -- 100
2019-12-05 04:00:00 7.2 4 Oeste 8 Oeste 0 -- -- 100
2019-12-05 03:00:00 7.2 2 Sur 5 Oeste 1 -- -- 100
2019-12-05 02:00:00 7.3 3 Noroeste 5 Noroeste 0.2 -- -- 100
2019-12-05 01:00:00 7.3 0 Calma -- -- 0.8 -- -- 100
2019-12-05 00:00:00 7.1 0 Calma 4 Este 0.2 -- -- 100
2019-12-04 23:00:00 6.9 0 Calma 3 Sudoeste 0.4 -- -- 100
2019-12-04 22:00:00 6.7 0 Calma 4 Sudeste 0.8 -- -- 100
2019-12-04 21:00:00 6.5 2 Nordeste 8 Sudeste 1.2 -- -- 100
2019-12-04 20:00:00 6.2 0 Calma 3 Oeste 0.2 -- -- 100
2019-12-04 19:00:00 6 0 Calma 7 Este 0.2 -- -- 100
2019-12-04 18:00:00 5.9 3 Sudeste 5 Este 1.2 -- -- 100
2019-12-04 17:00:00 5.9 0 Calma 8 Sudeste 2 -- -- 100
2019-12-04 16:00:00 5.8 0 Calma 7 Noroeste 3.2 -- -- 99
2019-12-04 15:00:00 5.8 4 Oeste 5 Oeste 2.6 -- -- 99
2019-12-04 14:00:00 5.7 3 Noroeste 9 Oeste 1 -- -- 99
2019-12-04 13:00:00 5 4 Noroeste 8 Noroeste 7.6 -- -- 100
2019-12-04 12:00:00 5 4 Oeste 12 Oeste 5.2 -- -- 100
2019-12-04 11:00:00 4.6 0 Calma 4 Oeste 4.8 -- -- 100
2019-12-04 10:00:00 4.3 0 Calma 9 Sudeste 4.2 -- -- 100
2019-12-04 09:00:00 4.1 0 Calma 9 Sudeste 6.6 -- -- 100
2019-12-04 08:00:00 4.1 3 Sudeste 9 Sudeste 3.2 -- -- 99
2019-12-04 07:00:00 4.1 0 Calma 3 Sudoeste 1.8 -- -- 99
2019-12-04 06:00:00 4.1 0 Calma 3 Sudeste 1 -- -- 99
2019-12-04 05:00:00 4.1 0 Calma 4 Sudeste 0.6 -- -- 99
2019-12-04 04:00:00 4 0 Calma 5 Sudeste 0 -- -- 99
2019-12-04 03:00:00 4 3 Sudeste 6 Sudeste 0.4 -- -- 98
2019-12-04 02:00:00 4.1 0 Calma -- -- 0.4 -- -- 98
2019-12-04 01:00:00 4.2 0 Calma -- -- 1.4 -- -- 97
2019-12-04 00:00:00 4.6 0 Calma -- -- 0.6 -- -- 96
2019-12-03 23:00:00 4.9 0 Calma -- -- 0.2 -- -- 94
2019-12-03 22:00:00 5 0 Calma -- -- 0.2 -- -- 92
2019-12-03 21:00:00 5.4 0 Calma 6 Oeste 0 -- -- 87
2019-12-03 20:00:00 5.5 0 Calma 0 Calma 0 -- -- 81
2019-12-03 19:00:00 5.6 2 Oeste 6 Oeste 0 -- -- 79
2019-12-03 18:00:00 5.8 4 Noroeste 10 Noroeste 0 -- -- 77
2019-12-03 17:00:00 6.3 5 Noroeste 10 Noroeste 0 -- -- 72
2019-12-03 16:00:00 6.7 4 Norte 14 Oeste 0 -- -- 69
2019-12-03 15:00:00 6.5 5 Oeste 12 Oeste 0 -- -- 71
2019-12-03 14:00:00 6.5 6 Noroeste 16 Noroeste 0 -- -- 70
2019-12-03 13:00:00 6.6 6 Noroeste 15 Noroeste 0 -- -- 68
2019-12-03 12:00:00 6.1 6 Noroeste 16 Oeste 0 -- -- 72
2019-12-03 11:00:00 5.6 6 Oeste 18 Oeste 0 -- -- 74
2019-12-03 10:00:00 5 7 Oeste 14 Oeste 0 -- -- 75
2019-12-03 09:00:00 4.6 5 Sudoeste 13 Noroeste 0 -- -- 78
2019-12-03 08:00:00 4.5 2 Sudoeste 12 Noroeste 0 -- -- 80
2019-12-03 07:00:00 4.7 3 Sudoeste 13 Oeste 0 -- -- 79
2019-12-03 06:00:00 4.6 5 Oeste 12 Sudoeste 0 -- -- 79
2019-12-03 05:00:00 4.6 6 Sudoeste 14 Oeste 0 -- -- 80
2019-12-03 04:00:00 4.6 4 Oeste 13 Oeste 0 -- -- 80
2019-12-03 03:00:00 4.7 5 Noroeste 11 Noroeste 0 -- -- 78
2019-12-03 02:00:00 4.8 3 Sudoeste 12 Noroeste 0 -- -- 80
2019-12-03 01:00:00 5.7 5 Oeste 15 Oeste 0 -- -- 78
2019-12-03 00:00:00 6 5 Oeste 19 Oeste 0 -- -- 78
2019-12-02 23:00:00 6.3 7 Oeste 16 Oeste 0 -- -- 80
2019-12-02 22:00:00 6.9 8 Oeste 19 Oeste 0 -- -- 82
2019-12-02 21:00:00 5.2 4 Oeste 8 Sudoeste 0 -- -- 95
2019-12-02 20:00:00 5.6 0 Calma 6 Oeste 0 -- -- 95
2019-12-02 19:00:00 5.8 2 Oeste 5 Este 0 -- -- 93
2019-12-02 18:00:00 6.6 0 Calma 8 Sudoeste 0 -- -- 87
2019-12-02 17:00:00 8.4 5 Sudoeste 7 Sudoeste 0 -- -- 83
2019-12-02 16:00:00 9.2 0 Calma 12 Norte 0 -- -- 79
2019-12-02 15:00:00 9.6 6 Noroeste 11 Noroeste 0 -- -- 78
2019-12-02 14:00:00 9.5 6 Noroeste 10 Noroeste 0 -- -- 78
2019-12-02 13:00:00 8.8 4 Noroeste 10 Oeste 0 -- -- 81
2019-12-02 12:00:00 8.3 5 Noroeste 11 Oeste 0 -- -- 84
2019-12-02 11:00:00 7.2 3 Noroeste 8 Noroeste 0 -- -- 91
2019-12-02 10:00:00 5.6 3 Oeste 6 Oeste 0 -- -- 98
2019-12-02 09:00:00 4.8 0 Calma 4 Oeste 0 -- -- 98
2019-12-02 08:00:00 4.6 3 Oeste 6 Este 0 -- -- 99
2019-12-02 07:00:00 4.1 0 Calma -- -- 0 -- -- 100
2019-12-02 06:00:00 3.4 0 Calma -- -- 0 -- -- 100
2019-12-02 05:00:00 2.7 0 Calma -- -- 0 -- -- 100
2019-12-02 04:00:00 2.2 0 Calma -- -- 0 -- -- 99
2019-12-02 03:00:00 1.8 0 Calma -- -- 0 -- -- 99
2019-12-02 02:00:00 1.6 0 Calma -- -- 0 -- -- 98
2019-12-02 01:00:00 1.9 0 Calma -- -- 0 -- -- 98
2019-12-02 00:00:00 2 0 Calma 4 Oeste 0 -- -- 98
2019-12-01 23:00:00 1.7 2 Sudoeste 6 Oeste 0 -- -- 97
2019-12-01 22:00:00 1.8 2 Oeste 5 Oeste 0 -- -- 95
2019-12-01 21:00:00 2.5 0 Calma 4 Sudoeste 0 -- -- 93
2019-12-01 20:00:00 4 0 Calma 4 Sur 0 -- -- 88
2019-12-01 19:00:00 5.7 0 Calma 5 Sudeste 0 -- -- 83
2019-12-01 18:00:00 8.1 4 Sur 9 Sudoeste 0 -- -- 74
2019-12-01 17:00:00 10.3 3 Norte 12 Oeste 0 -- -- 65
2019-12-01 16:00:00 11.1 8 Oeste 11 Oeste 0 -- -- 60
2019-12-01 15:00:00 11.4 5 Noroeste 17 Oeste 0 -- -- 61
2019-12-01 14:00:00 11.2 8 Oeste 15 Oeste 0 -- -- 62
2019-12-01 13:00:00 11.3 4 Oeste 14 Oeste 0 -- -- 64
2019-12-01 12:00:00 10.1 3 Noroeste 9 Oeste 0 -- -- 69
2019-12-01 11:00:00 6.6 0 Calma 0 Calma 0 -- -- 99
2019-12-01 10:00:00 4.3 0 Calma 8 Oeste 0 -- -- 99
2019-12-01 09:00:00 2.4 0 Calma 6 Sudoeste 0 -- -- 97
2019-12-01 08:00:00 2.7 0 Calma 6 Oeste 0 -- -- 96
2019-12-01 07:00:00 3.7 0 Calma 5 Norte 0 -- -- 94
2019-12-01 06:00:00 4.8 3 Oeste 8 Este 0 -- -- 91
2019-12-01 05:00:00 6.6 2 Sudeste 8 Oeste 0 -- -- 87
2019-12-01 04:00:00 8.3 5 Sudoeste 7 Sur 0 -- -- 81
2019-12-01 03:00:00 9 3 Sur 16 Sudoeste 0 -- -- 80
2019-12-01 02:00:00 9.2 5 Sudoeste 20 Oeste 0 -- -- 80
2019-12-01 01:00:00 9.1 9 Oeste 30 Oeste 0 -- -- 86
2019-12-01 00:00:00 10.6 14 Oeste 25 Noroeste 0 -- -- 90
2019-11-30 23:00:00 9.9 11 Oeste 27 Oeste 0 -- -- 97
2019-11-30 22:00:00 7 0 Calma 7 Este 0 -- -- 96
2019-11-30 21:00:00 7.4 0 Calma -- -- 0 -- -- 93
2019-11-30 20:00:00 8.7 0 Calma 4 Sudeste 0 -- -- 91
2019-11-30 19:00:00 10.5 3 Sudoeste 5 Sudoeste 0 -- -- 86
2019-11-30 18:00:00 13 2 Sudeste 8 Sudoeste 0 -- -- 78
2019-11-30 17:00:00 15.8 5 Este 13 Este 0 -- -- 69
2019-11-30 16:00:00 17.5 8 Este 16 Nordeste 0 -- -- 62
2019-11-30 15:00:00 17.5 5 Este 18 Este 0 -- -- 61
2019-11-30 14:00:00 17.6 7 Este 15 Este 0 -- -- 63
2019-11-30 13:00:00 17.4 10 Este 18 Este 0 -- -- 61
2019-11-30 12:00:00 14.7 3 Sur 5 Sudoeste 0 -- -- 78
2019-11-30 11:00:00 10.7 3 Oeste 6 Noroeste 0 -- -- 97
2019-11-30 10:00:00 7 0 Calma -- -- 0 -- -- 100
2019-11-30 09:00:00 4.6 0 Calma -- -- 0 -- -- 100
2019-11-30 08:00:00 4.2 0 Calma -- -- 0 -- -- 99
2019-11-30 07:00:00 4.8 0 Calma -- -- 0 -- -- 99
2019-11-30 06:00:00 5.5 0 Calma -- -- 0 -- -- 99
2019-11-30 05:00:00 5.7 0 Calma -- -- 0 -- -- 99
2019-11-30 04:00:00 5.5 0 Calma -- -- 0 -- -- 99
2019-11-30 03:00:00 5.7 0 Calma -- -- 0 -- -- 99
2019-11-30 02:00:00 5.5 0 Calma 3 Este 0 -- -- 98
2019-11-30 01:00:00 5.4 0 Calma 4 Nordeste 0 -- -- 96
2019-11-30 00:00:00 5.9 2 Sur 8 Oeste 0 -- -- 95
2019-11-29 23:00:00 6.8 0 Calma 4 Oeste 0 -- -- 94
2019-11-29 22:00:00 7.3 0 Calma 4 Sudoeste 0 -- -- 94
2019-11-29 21:00:00 8 0 Calma 5 Oeste 0 -- -- 92
2019-11-29 20:00:00 9.1 0 Calma 6 Sudoeste 0 -- -- 89
2019-11-29 19:00:00 10.6 2 Oeste 7 Sudoeste 0 -- -- 85
2019-11-29 18:00:00 12 3 Sudoeste 12 Sudoeste 0 -- -- 81
2019-11-29 17:00:00 13.8 5 Sudoeste 18 Noroeste 0 -- -- 73
2019-11-29 16:00:00 15.1 8 Noroeste 17 Noroeste 0 -- -- 67
2019-11-29 15:00:00 15.1 3 Oeste 11 Norte 0 -- -- 69
2019-11-29 14:00:00 14.6 4 Oeste 17 Oeste 0 -- -- 72
2019-11-29 13:00:00 14.6 10 Noroeste 20 Oeste 0 -- -- 73
2019-11-29 12:00:00 14.4 14 Noroeste 28 Oeste 0 -- -- 74
2019-11-29 11:00:00 14.4 12 Oeste 27 Noroeste 0 -- -- 71
2019-11-29 10:00:00 14 9 Oeste 21 Oeste 0 -- -- 71
2019-11-29 09:00:00 12.2 2 Nordeste 20 Sudoeste 0 -- -- 76
2019-11-29 08:00:00 13.5 9 Oeste 24 Noroeste 0 -- -- 71
2019-11-29 07:00:00 13.2 7 Oeste 21 Oeste 0 -- -- 71
2019-11-29 06:00:00 12.4 8 Oeste 22 Oeste 0 -- -- 72
2019-11-29 05:00:00 12.3 8 Oeste 19 Oeste 0 -- -- 72
2019-11-29 04:00:00 12.6 6 Sudoeste 13 Oeste 0 -- -- 69
2019-11-29 03:00:00 13.2 8 Oeste 18 Oeste 0 -- -- 64
2019-11-29 02:00:00 12.1 4 Oeste 17 Oeste 0 -- -- 69
2019-11-29 01:00:00 8.2 4 Oeste 14 Noroeste 0 -- -- 85
2019-11-29 00:00:00 9.7 2 Oeste 8 Sudeste 0 -- -- 76
2019-11-28 23:00:00 10.8 3 Oeste 8 Oeste 0 -- -- 72
2019-11-28 22:00:00 10.3 0 Calma 7 Sudoeste 0 -- -- 78
2019-11-28 21:00:00 11 4 Este 7 Sudeste 0 -- -- 76
2019-11-28 20:00:00 12 4 Sudoeste 10 Este 0 -- -- 70
2019-11-28 19:00:00 12.9 5 Sur 12 Sudoeste 0 -- -- 65
2019-11-28 18:00:00 13.2 3 Sudoeste 10 Sur 0 -- -- 65
2019-11-28 17:00:00 15.2 3 Oeste 21 Oeste 0 -- -- 58
2019-11-28 16:00:00 16.2 11 Oeste 31 Oeste 0 -- -- 50
2019-11-28 15:00:00 17.2 16 Oeste 34 Noroeste 0 -- -- 49
2019-11-28 14:00:00 17.5 15 Oeste 41 Oeste 0 -- -- 49
2019-11-28 13:00:00 16.8 17 Oeste 34 Sudoeste 0 -- -- 53
2019-11-28 12:00:00 16.1 12 Noroeste 31 Oeste 0 -- -- 54
2019-11-28 11:00:00 14.7 7 Oeste 23 Oeste 0 -- -- 57
2019-11-28 10:00:00 13.1 8 Oeste 19 Oeste 0 -- -- 60
2019-11-28 09:00:00 11.6 4 Sudoeste 21 Oeste 0 -- -- 66
2019-11-28 08:00:00 11.6 8 Oeste 23 Oeste 0 -- -- 63
2019-11-28 07:00:00 10.8 11 Oeste 26 Oeste 0 -- -- 66
2019-11-28 06:00:00 8.4 7 Sudoeste 23 Oeste 0 -- -- 78
2019-11-28 05:00:00 5.4 3 Sudoeste 7 Oeste 0 -- -- 86
2019-11-28 04:00:00 6.9 2 Oeste 8 Sudoeste 0 -- -- 80
2019-11-28 03:00:00 9 3 Este 13 Oeste 0 -- -- 71
2019-11-28 02:00:00 10.8 8 Oeste 18 Noroeste 0 -- -- 63
2019-11-28 01:00:00 12 5 Sudoeste 34 Oeste 0 -- -- 59
2019-11-28 00:00:00 12.7 18 Oeste 32 Oeste 0 -- -- 58
2019-11-27 23:00:00 8.6 2 Sudeste 9 Oeste 0 -- -- 75
2019-11-27 22:00:00 8.3 2 Oeste 13 Noroeste 0 -- -- 82
2019-11-27 21:00:00 7.8 3 Sudeste 7 Este 0 -- -- 84
2019-11-27 20:00:00 8 0 Calma 10 Sur 0 -- -- 79
2019-11-27 19:00:00 9 2 Sudoeste 8 Sudoeste 0 -- -- 75
2019-11-27 18:00:00 11.7 5 Sur 12 Sudoeste 0 -- -- 64
2019-11-27 17:00:00 14.3 3 Sudoeste 20 Oeste 0 -- -- 55
2019-11-27 16:00:00 15.8 9 Noroeste 30 Oeste 0 -- -- 48
2019-11-27 15:00:00 16.2 17 Noroeste 30 Oeste 0 -- -- 48
2019-11-27 14:00:00 15.8 16 Noroeste 34 Noroeste 0 -- -- 51
2019-11-27 06:00:00 -- -- -- -- -- -- -- -- --
2019-11-27 05:00:00 8.3 4 Sur 7 Sudeste 0 -- -- 88
2019-11-27 04:00:00 8.9 0 Calma 7 Oeste 0 -- -- 90
2019-11-27 03:00:00 10.5 3 Sudoeste 15 Oeste 0 -- -- 84
2019-11-27 02:00:00 7.7 3 Sudoeste 12 Oeste 0 -- -- 96
2019-11-27 01:00:00 8.3 3 Sur 9 Este 0 -- -- 92
2019-11-27 00:00:00 9.2 4 Oeste 8 Oeste 0 -- -- 92
2019-11-26 23:00:00 9.6 3 Sudeste 6 Nordeste 0 -- -- 94
2019-11-26 22:00:00 9.5 3 Oeste 9 Sur 0 -- -- 94
2019-11-26 21:00:00 9.5 2 Noroeste 9 Este 0 -- -- 91
2019-11-26 20:00:00 10 4 Este 13 Oeste 0 -- -- 89
2019-11-26 19:00:00 10.9 4 Nordeste 8 Sudeste 0 -- -- 85
2019-11-26 18:00:00 13.3 2 Sudeste 8 Sudoeste 0 -- -- 77
2019-11-26 17:00:00 16.1 4 Sudoeste 9 Sur 0 -- -- 68
2019-11-26 16:00:00 18.8 2 Noroeste 8 Este 0 -- -- 58
2019-11-26 15:00:00 18.9 4 Este 12 Noroeste 0 -- -- 54
2019-11-26 14:00:00 18.1 7 Oeste 17 Oeste 0 -- -- 56
2019-11-26 13:00:00 17.4 3 Sudoeste 9 Oeste 0 -- -- 55
2019-11-26 12:00:00 14.1 0 Calma 0 Calma 0 -- -- 66
2019-11-26 11:00:00 10 0 Calma 5 Oeste 0 -- -- 93
2019-11-26 10:00:00 6.5 0 Calma 8 Oeste 0 -- -- 100
2019-11-26 09:00:00 3.7 3 Noroeste 6 Sudeste 0 -- -- 100
2019-11-26 08:00:00 3 0 Calma 8 Oeste 0 -- -- 99
2019-11-26 07:00:00 3.2 0 Calma -- -- 0 -- -- 99
2019-11-26 06:00:00 2.9 0 Calma -- -- 0 -- -- 99
2019-11-26 05:00:00 3.2 0 Calma -- -- 0 -- -- 98
2019-11-26 04:00:00 3.5 0 Calma -- -- 0 -- -- 98
2019-11-26 03:00:00 4 0 Calma -- -- 0 -- -- 97
2019-11-26 02:00:00 4.5 0 Calma -- -- 0 -- -- 97
2019-11-26 01:00:00 4.8 0 Calma -- -- 0 -- -- 96
2019-11-26 00:00:00 5.6 0 Calma -- -- 0 -- -- 95
2019-11-25 23:00:00 6.6 0 Calma -- -- 0 -- -- 94
2019-11-25 22:00:00 7.5 0 Calma 3 Este 0 -- -- 93
2019-11-25 21:00:00 7.9 0 Calma 5 Oeste 0 -- -- 92
2019-11-25 20:00:00 8.6 0 Calma 5 Este 0 -- -- 87
2019-11-25 19:00:00 10.1 0 Calma 5 Sudoeste 0 -- -- 82
2019-11-25 18:00:00 12.9 3 Sur 12 Oeste 0 -- -- 74
2019-11-25 17:00:00 15.2 7 Oeste 20 Oeste 0 -- -- 65
2019-11-25 16:00:00 16.3 11 Oeste 28 Noroeste 0 -- -- 59
2019-11-25 15:00:00 16.7 19 Noroeste 33 Oeste 0 -- -- 57
2019-11-25 14:00:00 16.4 15 Noroeste 32 Oeste 0 -- -- 59
2019-11-25 13:00:00 15.9 14 Noroeste 26 Noroeste 0 -- -- 62
2019-11-25 12:00:00 15.2 13 Oeste 29 Noroeste 0 -- -- 63
2019-11-25 11:00:00 14.1 14 Noroeste 28 Noroeste 0 -- -- 68
2019-11-25 10:00:00 11.6 8 Oeste 22 Oeste 0 -- -- 78
2019-11-25 09:00:00 7.9 9 Oeste 19 Oeste 0 -- -- 100
2019-11-25 08:00:00 3.5 2 Oeste 6 Sudoeste 0 -- -- 99
2019-11-25 07:00:00 3.9 2 Sur 6 Oeste 0 -- -- 99
2019-11-25 06:00:00 3.9 0 Calma -- -- 0 -- -- 100
2019-11-25 05:00:00 3 0 Calma -- -- 0 -- -- 99
2019-11-25 04:00:00 2.1 0 Calma -- -- 0 -- -- 98
2019-11-25 03:00:00 1.9 0 Calma -- -- 0 -- -- 97
2019-11-25 02:00:00 2.1 0 Calma -- -- 0 -- -- 98
2019-11-25 01:00:00 1.2 0 Calma -- -- 0 -- -- 96
2019-11-25 00:00:00 1.1 0 Calma -- -- 0 -- -- 93
2019-11-24 23:00:00 1.9 0 Calma 4 Este 0 -- -- 91
2019-11-24 22:00:00 3.1 0 Calma 6 Sur 0 -- -- 88
2019-11-24 21:00:00 4.8 2 Sudeste 10 Sudoeste 0 -- -- 81
2019-11-24 20:00:00 6.3 5 Sudoeste 12 Oeste 0 -- -- 75
2019-11-24 19:00:00 8.2 8 Oeste 18 Sudoeste 0 -- -- 67
2019-11-24 18:00:00 9.1 5 Sudoeste 14 Oeste 0 -- -- 67
2019-11-24 17:00:00 10.6 5 Sudoeste 24 Oeste 0 -- -- 62
2019-11-24 16:00:00 11.2 9 Oeste 41 Noroeste 0 -- -- 59
2019-11-24 15:00:00 11.4 22 Noroeste 39 Noroeste 0 -- -- 57
2019-11-24 14:00:00 11.7 16 Oeste 41 Noroeste 0 -- -- 56
2019-11-24 13:00:00 11.3 21 Oeste 46 Oeste 0 -- -- 58
2019-11-24 12:00:00 10.7 16 Oeste 39 Oeste 0 -- -- 59
2019-11-24 11:00:00 9.6 22 Oeste 43 Oeste 0 -- -- 61
2019-11-24 10:00:00 8.8 20 Oeste 41 Oeste 0 -- -- 65
2019-11-24 09:00:00 7.7 13 Oeste 34 Oeste 0 -- -- 68
2019-11-24 08:00:00 7.3 8 Oeste 29 Oeste 0 -- -- 69
2019-11-24 07:00:00 7.4 11 Oeste 30 Oeste 0 -- -- 70
2019-11-24 06:00:00 7.9 12 Oeste 33 Oeste 0 -- -- 68
2019-11-24 05:00:00 7.2 10 Oeste 19 Oeste 0 -- -- 71
2019-11-24 04:00:00 8.3 15 Oeste 35 Oeste 0 -- -- 66
2019-11-24 03:00:00 8 12 Oeste 27 Oeste 0 -- -- 68
2019-11-24 02:00:00 7.8 7 Oeste 35 Oeste 0 -- -- 71
2019-11-24 01:00:00 7.9 14 Oeste 26 Oeste 0 -- -- 70
2019-11-24 00:00:00 8.2 10 Oeste 28 Oeste 0 -- -- 69
2019-11-23 23:00:00 8.3 8 Noroeste 33 Noroeste 0 -- -- 69
2019-11-23 22:00:00 8.6 12 Oeste 28 Oeste 0 -- -- 66
2019-11-23 21:00:00 8.5 13 Oeste 31 Oeste 0 -- -- 67
2019-11-23 20:00:00 8.3 14 Oeste 36 Oeste 0 -- -- 69
2019-11-23 19:00:00 8.7 14 Oeste 37 Oeste 0 -- -- 70
2019-11-23 18:00:00 9.5 21 Noroeste 40 Noroeste 0 -- -- 64
2019-11-23 17:00:00 10.7 19 Noroeste 43 Noroeste 0 -- -- 61
2019-11-23 16:00:00 11.1 21 Noroeste 43 Oeste 0 -- -- 58
2019-11-23 15:00:00 10.4 18 Oeste 40 Oeste 0 -- -- 61
2019-11-23 14:00:00 9.7 18 Oeste 33 Noroeste 0 -- -- 66
2019-11-23 13:00:00 9.1 19 Oeste 45 Oeste 0 -- -- 74
2019-11-23 12:00:00 8.4 14 Oeste 26 Oeste 0.4 -- -- 85
2019-11-23 11:00:00 7.3 7 Oeste 41 Oeste 1.2 -- -- 91
2019-11-23 10:00:00 8.6 18 Oeste 59 Oeste 0 -- -- 74
2019-11-23 09:00:00 8.1 13 Oeste 23 Oeste 0 -- -- 78
2019-11-23 08:00:00 4.2 4 Este 8 Oeste 0 -- -- 99
2019-11-23 07:00:00 3.9 2 Sudoeste 6 Sudeste 0 -- -- 99
2019-11-23 06:00:00 5 3 Oeste 8 Este 0 -- -- 99
2019-11-23 05:00:00 5.1 7 Este 13 Oeste 0 -- -- 99
2019-11-23 04:00:00 4.1 3 Oeste 6 Oeste 0 -- -- 97
2019-11-23 03:00:00 5.1 2 Sudeste 7 Sudoeste 0 -- -- 95
2019-11-23 02:00:00 6.5 3 Sudeste 7 Sudoeste 0 -- -- 92
2019-11-23 01:00:00 8.9 4 Sur 8 Sur 0 -- -- 89
2019-11-23 00:00:00 10.7 10 Oeste 38 Oeste 0.4 -- -- 85
2019-11-22 23:00:00 12.5 9 Sur 16 Sur 0 -- -- 71
2019-11-22 22:00:00 13.3 10 Sudeste 32 Este 0 -- -- 74
2019-11-22 21:00:00 13.3 10 Sur 29 Sur 0 -- -- 74
2019-11-22 20:00:00 12.8 6 Noroeste 53 Este 0 -- -- 78
2019-11-22 19:00:00 12.6 8 Norte 39 Sudeste 0 -- -- 77
2019-11-22 18:00:00 12.2 10 Sudeste 35 Sudeste 0.4 -- -- 78
2019-11-22 17:00:00 12.1 6 Sudoeste 33 Este 0 -- -- 76
2019-11-22 16:00:00 12.7 6 Este 34 Sudeste 0 -- -- 69
2019-11-22 15:00:00 12.3 4 Nordeste 28 Sudeste 0 -- -- 71
2019-11-22 14:00:00 12.5 8 Sudeste 32 Sudeste 0 -- -- 66
2019-11-22 13:00:00 12.4 5 Este 14 Sudeste 0 -- -- 64
2019-11-22 12:00:00 10 2 Noroeste 6 Sudoeste 0 -- -- 84
2019-11-22 11:00:00 6.4 2 Oeste 6 Oeste 0 -- -- 99
2019-11-22 10:00:00 3.6 0 Calma 5 Oeste 0 -- -- 100
2019-11-22 09:00:00 1.4 0 Calma 4 Oeste 0 -- -- 100
2019-11-22 08:00:00 0.5 4 Oeste 6 Oeste 0 -- -- 99
2019-11-22 07:00:00 0.8 0 Calma 6 Oeste 0 -- -- 99
2019-11-22 06:00:00 0.9 2 Oeste 6 Oeste 0 -- -- 98
2019-11-22 05:00:00 1.3 0 Calma 4 Este 0 -- -- 97
2019-11-22 04:00:00 1.9 3 Oeste 6 Oeste 0 -- -- 96
2019-11-22 03:00:00 2.9 0 Calma 5 Oeste 0 -- -- 94
2019-11-22 02:00:00 4.1 3 Este 7 Nordeste 0 -- -- 93
2019-11-22 01:00:00 5.4 5 Este 9 Este 0 -- -- 94
2019-11-22 00:00:00 5.7 2 Este 6 Nordeste 0 -- -- 94
2019-11-21 23:00:00 6 0 Calma -- -- 0 -- -- 93
2019-11-21 22:00:00 6.4 0 Calma 4 Sudoeste 0 -- -- 90
2019-11-21 21:00:00 7 0 Calma 6 Nordeste 0 -- -- 87
2019-11-21 20:00:00 7.4 0 Calma 6 Oeste 0 -- -- 86
2019-11-21 19:00:00 8.2 0 Calma 8 Sudoeste 0 -- -- 82
2019-11-21 18:00:00 9.7 0 Calma 8 Sudoeste 0 -- -- 74
2019-11-21 17:00:00 11.6 0 Calma 4 Nordeste 0 -- -- 69
2019-11-21 16:00:00 12.6 0 Calma 5 Noroeste 0 -- -- 65
2019-11-21 15:00:00 12.9 4 Noroeste 13 Oeste 0 -- -- 54
2019-11-21 14:00:00 13 6 Noroeste 18 Oeste 0 -- -- 51
2019-11-21 13:00:00 12.3 5 Noroeste 18 Noroeste 0 -- -- 52
2019-11-21 12:00:00 10.6 6 Oeste 13 Sudoeste 0 -- -- 62
2019-11-21 11:00:00 6.3 0 Calma -- -- 0 -- -- 98
2019-11-21 10:00:00 2 0 Calma 5 Sudoeste 0 -- -- 100
2019-11-21 09:00:00 -0.2 0 Calma -- -- 0 -- -- 99
2019-11-21 08:00:00 -- -- -- -- -- -- -- -- --
2019-11-21 07:00:00 -- -- -- -- -- -- -- -- --
2019-11-21 06:00:00 -- -- -- -- -- -- -- -- --
2019-11-21 05:00:00 -- -- -- -- -- -- -- -- --
2019-11-21 04:00:00 -- -- -- -- -- -- -- -- --
2019-11-21 03:00:00 -- -- -- -- -- -- -- -- --
2019-11-21 02:00:00 -- -- -- -- -- -- -- -- --
2019-11-21 01:00:00 -- -- -- -- -- -- -- -- --
2019-11-21 00:00:00 -- -- -- -- -- -- -- -- --
2019-11-20 23:00:00 -- -- -- -- -- -- -- -- --
2019-11-20 22:00:00 -- -- -- -- -- -- -- -- --
2019-11-20 21:00:00 -- -- -- -- -- -- -- -- --
2019-11-20 20:00:00 -- -- -- -- -- -- -- -- --
2019-11-20 19:00:00 5.7 4 Sur 8 Sudoeste 0 -- -- 85
2019-11-20 18:00:00 8 4 Sur 8 Sur 0 -- -- 75
2019-11-20 17:00:00 10.5 0 Calma 8 Norte 0 -- -- 67
2019-11-20 16:00:00 11.3 6 Oeste 15 Noroeste 0 -- -- 67
2019-11-20 15:00:00 12.5 5 Sur 20 Sudeste 0 -- -- 56
2019-11-20 14:00:00 12.4 4 Sur 17 Sudeste 0 -- -- 56
2019-11-20 13:00:00 10.7 4 Sur 12 Nordeste 0 -- -- 65
2019-11-20 12:00:00 7.2 0 Calma -- -- 0 -- -- 83
2019-11-20 11:00:00 2.7 0 Calma -- -- 0 -- -- 100
2019-11-20 10:00:00 0.2 0 Calma -- -- 0 -- -- 100
2019-11-20 09:00:00 -1.3 0 Calma -- -- 0 -- -- 100
2019-11-20 08:00:00 -1.7 0 Calma -- -- 0 -- -- 99
2019-11-20 07:00:00 -1.7 0 Calma -- -- 0 -- -- 99
2019-11-20 06:00:00 -1.8 0 Calma -- -- 0 -- -- 99
2019-11-20 05:00:00 -1.6 0 Calma -- -- 0 -- -- 99
2019-11-20 04:00:00 -1.5 0 Calma -- -- 0 -- -- 99
2019-11-20 03:00:00 -1.3 0 Calma -- -- 0 -- -- 98
2019-11-20 02:00:00 -1.4 0 Calma -- -- 0 -- -- 98
2019-11-20 01:00:00 -1.2 0 Calma -- -- 0 -- -- 98
2019-11-20 00:00:00 -1 0 Calma -- -- 0 -- -- 97
2019-11-19 23:00:00 -0.6 0 Calma -- -- 0 -- -- 96
2019-11-19 22:00:00 0.1 0 Calma -- -- 0 -- -- 95
2019-11-19 21:00:00 0.7 0 Calma -- -- 0 -- -- 93
2019-11-19 20:00:00 1.9 0 Calma -- -- 0 -- -- 90
2019-11-19 19:00:00 3.7 0 Calma -- -- 0 -- -- 84
2019-11-19 18:00:00 6 0 Calma 9 Sudoeste 0 -- -- 76
2019-11-19 17:00:00 8.3 6 Sudoeste 15 Noroeste 0 -- -- 68
2019-11-19 16:00:00 9.4 7 Oeste 20 Oeste 0 -- -- 59
2019-11-19 15:00:00 9.5 8 Oeste 26 Noroeste 0 -- -- 62
2019-11-19 14:00:00 8.8 10 Oeste 28 Oeste 0 -- -- 62
2019-11-19 13:00:00 8.8 9 Noroeste 25 Noroeste 0 -- -- 62
2019-11-19 12:00:00 7.7 11 Oeste 30 Oeste 0 -- -- 66
2019-11-19 11:00:00 7.4 8 Oeste 15 Oeste 0 -- -- 69
2019-11-19 10:00:00 6.4 5 Oeste 15 Oeste 0 -- -- 72
2019-11-19 09:00:00 5.6 4 Sudoeste 15 Sudoeste 0 -- -- 74
2019-11-19 08:00:00 3.9 6 Sudoeste 16 Oeste 0 -- -- 81
2019-11-19 07:00:00 3.5 4 Sudoeste 12 Oeste 0 -- -- 82
2019-11-19 06:00:00 3.5 3 Oeste 17 Sur 0 -- -- 81
2019-11-19 05:00:00 4 4 Sudoeste 14 Oeste 0 -- -- 78
2019-11-19 04:00:00 4.4 6 Sudoeste 17 Oeste 0 -- -- 76
2019-11-19 03:00:00 3.6 7 Sudoeste 16 Oeste 0 -- -- 79
2019-11-19 02:00:00 4 8 Sudoeste 16 Sudoeste 0 -- -- 78
2019-11-19 01:00:00 4.9 6 Sudoeste 22 Oeste 0 -- -- 74
2019-11-19 00:00:00 5.4 9 Oeste 24 Oeste 0 -- -- 72
2019-11-18 23:00:00 5.7 10 Oeste 23 Oeste 0 -- -- 70
2019-11-18 22:00:00 5.1 8 Oeste 25 Sur 0 -- -- 73
2019-11-18 21:00:00 5.7 11 Oeste 29 Oeste 0 -- -- 71
2019-11-18 20:00:00 5.7 8 Oeste 33 Oeste 0 -- -- 73
2019-11-18 19:00:00 6.4 13 Oeste 28 Oeste 0 -- -- 70
2019-11-18 18:00:00 6.7 13 Oeste 26 Sudoeste 0 -- -- 70
2019-11-18 17:00:00 7.5 13 Oeste 32 Oeste 0 -- -- 67
2019-11-18 16:00:00 7.8 17 Oeste 37 Oeste 0 -- -- 67
2019-11-18 15:00:00 8 15 Oeste 28 Noroeste 0 -- -- 66
2019-11-18 14:00:00 7.6 15 Oeste 35 Oeste 0 -- -- 68
2019-11-18 13:00:00 7.2 13 Oeste 32 Oeste 0 -- -- 71
2019-11-18 12:00:00 7.1 15 Noroeste 37 Oeste 0 -- -- 69
2019-11-18 11:00:00 7.2 17 Oeste 38 Noroeste 0 -- -- 69
2019-11-18 10:00:00 6 11 Oeste 36 Oeste 0 -- -- 79
2019-11-18 09:00:00 6.1 14 Oeste 31 Oeste 0 -- -- 82
2019-11-18 08:00:00 6.1 13 Oeste 24 Oeste 0 -- -- 87
2019-11-18 07:00:00 5.9 8 Oeste 22 Oeste 0 -- -- 93
2019-11-18 06:00:00 5.6 11 Oeste 26 Oeste 0 -- -- 98
2019-11-18 05:00:00 4.2 7 Oeste 20 Oeste 0 -- -- 100
2019-11-18 04:00:00 3.4 0 Calma 6 Sudoeste 0 -- -- 97
2019-11-18 03:00:00 4.6 0 Calma 6 Oeste 0 -- -- 96
2019-11-18 02:00:00 6.3 3 Sudoeste 8 Sudoeste 0 -- -- 97
2019-11-18 01:00:00 7.1 0 Calma 5 Sudoeste 0.6 -- -- 99
2019-11-18 00:00:00 7.2 0 Calma 6 Sur 0 -- -- 98
2019-11-17 23:00:00 7.4 3 Sur 6 Sur 0.2 -- -- 98
2019-11-17 22:00:00 7.6 0 Calma 6 Oeste 0 -- -- 98
2019-11-17 21:00:00 7.7 0 Calma 5 Sur 0 -- -- 97
2019-11-17 20:00:00 7.9 2 Sur 5 Sudeste 0.2 -- -- 96
2019-11-17 19:00:00 8.3 0 Calma 6 Sur 0.4 -- -- 94
2019-11-17 18:00:00 8.8 3 Sudoeste 9 Sudoeste 1.4 -- -- 92
2019-11-17 17:00:00 9.9 5 Sudoeste 18 Oeste 1 -- -- 84
2019-11-17 16:00:00 11.8 8 Oeste 14 Oeste 0 -- -- 60
2019-11-17 15:00:00 11.9 9 Noroeste 27 Oeste 0 -- -- 56
2019-11-17 14:00:00 12.6 18 Noroeste 33 Oeste 0 -- -- 52
2019-11-17 13:00:00 11.8 15 Oeste 36 Oeste 0 -- -- 52
2019-11-17 12:00:00 10.4 21 Oeste 45 Oeste 0 -- -- 56
2019-11-17 11:00:00 9.5 17 Oeste 36 Oeste 0 -- -- 58
2019-11-17 10:00:00 7.2 10 Oeste 18 Oeste 0 -- -- 62
2019-11-17 09:00:00 5.2 5 Oeste 16 Sudoeste 0 -- -- 69
2019-11-17 08:00:00 5.2 8 Oeste 23 Oeste 0 -- -- 66
2019-11-17 07:00:00 5.3 9 Oeste 25 Oeste 0 -- -- 65
2019-11-17 06:00:00 4.9 8 Oeste 20 Sudoeste 0 -- -- 66
2019-11-17 05:00:00 6.4 11 Oeste 31 Oeste 0 -- -- 59
2019-11-17 04:00:00 6.2 10 Oeste 29 Sudoeste 0 -- -- 60
2019-11-17 03:00:00 6.7 11 Oeste 30 Sudoeste 0 -- -- 59
2019-11-17 02:00:00 6.7 11 Oeste 28 Oeste 0 -- -- 61
2019-11-17 01:00:00 6.6 12 Oeste 25 Oeste 0 -- -- 64
2019-11-17 00:00:00 6.8 9 Oeste 26 Oeste 0 -- -- 63
2019-11-16 23:00:00 7.4 14 Oeste 36 Oeste 0 -- -- 60
2019-11-16 22:00:00 7.4 15 Oeste 35 Oeste 0 -- -- 59
2019-11-16 21:00:00 6.6 13 Oeste 28 Oeste 0 -- -- 63
2019-11-16 20:00:00 5.4 7 Oeste 19 Oeste 0 -- -- 69
2019-11-16 19:00:00 6.3 10 Oeste 19 Oeste 0 -- -- 66
2019-11-16 18:00:00 7.4 5 Oeste 25 Noroeste 0 -- -- 67
2019-11-16 17:00:00 8.5 11 Noroeste 34 Oeste 0 -- -- 60
2019-11-16 16:00:00 9 15 Noroeste 28 Oeste 0 -- -- 55
2019-11-16 15:00:00 9 13 Oeste 25 Oeste 0 -- -- 54
2019-11-16 14:00:00 8.2 15 Noroeste 28 Noroeste 0 -- -- 58
2019-11-16 13:00:00 8 14 Noroeste 26 Noroeste 0 -- -- 57
2019-11-16 12:00:00 7.2 12 Oeste 26 Oeste 0 -- -- 63
2019-11-16 11:00:00 6.1 9 Noroeste 20 Noroeste 0 -- -- 69
2019-11-16 10:00:00 4.3 6 Oeste 15 Oeste 0 -- -- 77
2019-11-16 09:00:00 3.4 5 Sudoeste 14 Oeste 0 -- -- 83
2019-11-16 08:00:00 3.4 5 Sudoeste 17 Oeste 0 -- -- 85
2019-11-16 07:00:00 2 3 Oeste 7 Noroeste 0 -- -- 98
2019-11-16 06:00:00 0.5 0 Calma 6 Noroeste 0 -- -- 97
2019-11-16 05:00:00 0.2 3 Sur 8 Oeste 0 -- -- 95
2019-11-16 04:00:00 0.9 0 Calma 11 Sudoeste 0 -- -- 91
2019-11-16 03:00:00 2.5 2 Sudeste 17 Oeste 0 -- -- 86
2019-11-16 02:00:00 3.8 8 Oeste 23 Oeste 0 -- -- 84
2019-11-16 01:00:00 3.8 7 Oeste 19 Oeste 0 -- -- 84
2019-11-16 00:00:00 3.6 9 Oeste 22 Oeste 0 -- -- 86